Time;durP1;ratioP1;P1;durP2;ratioP2;P2;SDS_P1;SDS_P2;PMS_P1;PMS_P2;Temp;Humidity;BMP_temperature;BMP_pressure;BME280_temperature;BME280_humidity;BME280_pressure;Samples;Min_cycle;Max_cycle;Signal;HPM_P1;HPM_P2
2022/03/16 00:03:30;;;;;;;35.67;15.67;;;;;7.30;96822.00;;;;8433836;28;20222;-73
2022/03/16 00:07:33;;;;;;;47.17;18.60;;;;;7.30;96840.00;;;;8440468;28;20745;-73
2022/03/16 00:11:37;;;;;;;44.80;16.87;;;;;7.40;96839.00;;;;8439710;28;20229;-73
2022/03/16 00:15:40;;;;;;;43.47;16.47;;;;;7.50;96847.00;;;;8435153;28;20230;-71
2022/03/16 00:19:44;;;;;;;43.67;19.33;;;;;7.60;96849.00;;;;8437092;28;20229;-71
2022/03/16 00:23:47;;;;;;;47.17;20.13;;;;;7.60;96847.00;;;;8432916;28;20225;-72
2022/03/16 00:27:51;;;;;;;44.23;18.53;;;;;7.60;96856.00;;;;8434720;28;20745;-73
2022/03/16 00:31:54;;;;;;;44.10;18.60;;;;;7.70;96853.00;;;;8436875;28;20280;-73
2022/03/16 00:35:57;;;;;;;40.83;18.17;;;;;7.70;96858.00;;;;8430533;28;20221;-73
2022/03/16 00:40:01;;;;;;;44.63;18.57;;;;;7.80;96860.00;;;;8432267;28;20238;-73
2022/03/16 00:44:06;;;;;;;47.50;19.40;;;;;7.80;96862.00;;;;8433306;28;20253;-73
2022/03/16 00:48:09;;;;;;;43.80;19.63;;;;;7.70;96865.00;;;;8448631;28;20271;-73
2022/03/16 00:52:12;;;;;;;42.77;17.77;;;;;7.80;96866.00;;;;8432083;28;20688;-72
2022/03/16 00:56:15;;;;;;;46.87;19.50;;;;;7.80;96870.00;;;;8439055;28;20226;-73
2022/03/16 01:00:19;;;;;;;46.80;19.83;;;;;7.70;96870.00;;;;8446687;28;20228;-74
2022/03/16 01:04:22;;;;;;;48.57;20.50;;;;;7.80;96867.00;;;;8441769;28;20748;-72
2022/03/16 01:08:25;;;;;;;49.73;20.73;;;;;7.70;96870.00;;;;8426209;28;20631;-72
2022/03/16 01:12:28;;;;;;;50.13;21.97;;;;;7.70;96874.00;;;;8440478;28;20290;-73
2022/03/16 01:16:35;;;;;;;44.40;20.13;;;;;7.70;96874.00;;;;8456042;28;20230;-73
2022/03/16 01:20:38;;;;;;;47.37;21.50;;;;;7.80;96870.00;;;;8442656;28;20230;-72
2022/03/16 01:24:41;;;;;;;48.33;21.80;;;;;7.70;96868.00;;;;8435803;27;20273;-72
2022/03/16 01:28:44;;;;;;;46.30;20.70;;;;;7.80;96871.00;;;;8444068;27;20865;-73
2022/03/16 01:32:49;;;;;;;46.63;20.77;;;;;7.80;96875.00;;;;8444147;27;20602;-73
2022/03/16 01:36:52;;;;;;;48.37;20.43;;;;;7.80;96869.00;;;;8442558;27;20273;-73
2022/03/16 01:40:54;;;;;;;46.13;20.33;;;;;7.80;96869.00;;;;8440535;27;20236;-73
2022/03/16 01:44:58;;;;;;;48.17;20.83;;;;;7.70;96872.00;;;;8435011;27;20234;-72
2022/03/16 01:49:03;;;;;;;50.63;21.70;;;;;7.60;96876.00;;;;8439699;28;20698;-74
2022/03/16 01:53:06;;;;;;;51.20;22.33;;;;;7.50;96882.00;;;;8426934;27;20884;-74
2022/03/16 01:57:11;;;;;;;47.60;21.07;;;;;7.60;96871.00;;;;8435755;27;20307;-73
2022/03/16 02:01:14;;;;;;;38.20;19.10;;;;;7.50;96870.00;;;;8448152;27;21069;-73
2022/03/16 02:05:19;;;;;;;31.17;15.33;;;;;7.50;96878.00;;;;8426435;28;20709;-73
2022/03/16 02:09:22;;;;;;;30.93;14.13;;;;;7.40;96885.00;;;;8443860;27;20304;-73
2022/03/16 02:13:26;;;;;;;28.10;15.00;;;;;7.40;96886.00;;;;8437156;27;20230;-72
2022/03/16 02:17:29;;;;;;;24.33;13.07;;;;;7.30;96892.00;;;;8450682;27;20290;-74
2022/03/16 02:21:38;;;;;;;22.33;11.80;;;;;7.20;96897.00;;;;8425277;28;20228;-73
2022/03/16 02:25:51;;;;;;;23.10;12.93;;;;;7.20;96905.00;;;;8432108;27;20275;-73
2022/03/16 02:29:54;;;;;;;24.43;12.57;;;;;7.10;96898.00;;;;8436723;27;20257;-74
2022/03/16 02:33:57;;;;;;;20.43;10.80;;;;;6.90;96903.00;;;;8437751;27;20293;-74
2022/03/16 02:37:59;;;;;;;21.73;12.30;;;;;6.70;96913.00;;;;8436522;27;20392;-72
2022/03/16 02:42:05;;;;;;;21.20;11.57;;;;;6.60;96910.00;;;;8452718;27;20229;-73
2022/03/16 02:46:08;;;;;;;18.83;11.03;;;;;6.50;96922.00;;;;8439092;27;20224;-72
2022/03/16 02:50:12;;;;;;;23.47;12.40;;;;;6.40;96920.00;;;;8434536;28;20221;-74
2022/03/16 02:54:15;;;;;;;24.07;11.50;;;;;6.30;96923.00;;;;8435290;27;20258;-73
2022/03/16 02:58:19;;;;;;;23.37;11.20;;;;;6.20;96928.00;;;;8455222;27;20312;-74
2022/03/16 03:02:22;;;;;;;19.57;10.43;;;;;6.10;96920.00;;;;8439723;22;20288;-73
2022/03/16 03:06:27;;;;;;;23.23;11.23;;;;;6.00;96921.00;;;;8377254;28;20230;-73
2022/03/16 03:10:30;;;;;;;23.73;11.87;;;;;5.80;96931.00;;;;8373692;28;20273;-74
2022/03/16 03:14:34;;;;;;;24.17;11.13;;;;;5.70;96931.00;;;;8367550;28;20227;-73
2022/03/16 03:18:37;;;;;;;24.13;11.37;;;;;5.60;96934.00;;;;8371205;28;20721;-73
2022/03/16 03:22:41;;;;;;;25.13;11.43;;;;;5.50;96942.00;;;;8374246;28;20671;-73
2022/03/16 03:26:44;;;;;;;24.17;11.90;;;;;5.40;96950.00;;;;8375057;28;21006;-73
2022/03/16 03:30:48;;;;;;;27.10;12.07;;;;;5.30;96953.00;;;;8361255;28;20224;-73
2022/03/16 03:34:53;;;;;;;27.43;12.10;;;;;5.20;96961.00;;;;8370768;28;20745;-73
2022/03/16 03:38:56;;;;;;;28.30;13.00;;;;;5.20;96970.00;;;;8378221;28;20224;-72
2022/03/16 03:42:59;;;;;;;31.27;13.17;;;;;5.20;96973.00;;;;8379238;28;20630;-72
2022/03/16 03:47:04;;;;;;;28.93;12.30;;;;;5.20;96968.00;;;;8373330;28;20242;-72
2022/03/16 03:51:07;;;;;;;25.10;11.33;;;;;5.10;96971.00;;;;8377547;28;20786;-72
2022/03/16 03:55:10;;;;;;;26.27;11.40;;;;;5.10;96984.00;;;;8374267;28;20806;-72
2022/03/16 03:59:13;;;;;;;31.43;12.40;;;;;5.10;96982.00;;;;8377414;28;20229;-72
2022/03/16 04:03:17;;;;;;;28.63;12.97;;;;;5.10;96996.00;;;;8373412;28;20232;-73
2022/03/16 04:07:20;;;;;;;32.27;13.13;;;;;5.20;96999.00;;;;8364467;28;20276;-72
2022/03/16 04:11:23;;;;;;;31.73;12.97;;;;;5.30;96993.00;;;;8358920;28;20234;-73
2022/03/16 04:15:26;;;;;;;30.50;12.77;;;;;5.50;97009.00;;;;8373328;28;20998;-72
2022/03/16 04:19:31;;;;;;;32.77;13.03;;;;;5.60;97011.00;;;;8372174;28;20220;-72
2022/03/16 04:23:33;;;;;;;32.70;13.13;;;;;5.70;97014.00;;;;8374244;28;20221;-73
2022/03/16 04:27:37;;;;;;;31.70;13.60;;;;;5.80;97026.00;;;;8369082;28;21363;-72
2022/03/16 04:31:39;;;;;;;31.53;13.53;;;;;5.80;97026.00;;;;8374089;28;20220;-71
2022/03/16 04:35:44;;;;;;;33.90;13.77;;;;;5.90;97028.00;;;;8376671;28;20271;-72
2022/03/16 04:39:47;;;;;;;33.73;14.07;;;;;6.00;97036.00;;;;8360580;28;20229;-72
2022/03/16 04:43:50;;;;;;;33.87;13.53;;;;;6.00;97035.00;;;;8369126;28;20225;-72
2022/03/16 04:47:53;;;;;;;38.50;13.70;;;;;5.90;97040.00;;;;8368574;28;20706;-72
2022/03/16 04:51:58;;;;;;;32.80;13.50;;;;;6.00;97040.00;;;;8375863;28;20558;-70
2022/03/16 04:56:01;;;;;;;34.10;13.90;;;;;6.10;97035.00;;;;8370768;28;20222;-71
2022/03/16 05:00:05;;;;;;;33.63;13.70;;;;;6.10;97041.00;;;;8381982;28;20281;-70
2022/03/16 05:04:07;;;;;;;33.03;13.07;;;;;6.20;97057.00;;;;8370862;28;20232;-72
2022/03/16 05:08:12;;;;;;;31.37;13.27;;;;;6.20;97062.00;;;;8376413;28;20314;-71
2022/03/16 05:12:15;;;;;;;35.57;13.80;;;;;6.30;97076.00;;;;8376671;28;20230;-71
2022/03/16 05:16:18;;;;;;;34.03;13.47;;;;;6.30;97077.00;;;;8373738;28;20760;-72
2022/03/16 05:20:21;;;;;;;33.80;15.07;;;;;6.40;97078.00;;;;8366278;28;20309;-72
2022/03/16 05:24:26;;;;;;;34.30;14.30;;;;;6.40;97082.00;;;;8368306;28;20257;-71
2022/03/16 05:28:30;;;;;;;35.37;14.30;;;;;6.40;97087.00;;;;8379491;28;20256;-72
2022/03/16 05:32:33;;;;;;;32.80;14.20;;;;;6.40;97090.00;;;;8373370;28;20233;-73
2022/03/16 05:36:36;;;;;;;32.53;13.90;;;;;6.40;97100.00;;;;8374166;28;20271;-72
2022/03/16 05:40:41;;;;;;;32.73;13.93;;;;;6.50;97103.00;;;;8371679;28;20235;-73
2022/03/16 05:44:44;;;;;;;30.77;14.43;;;;;6.50;97115.00;;;;8382487;28;20694;-72
2022/03/16 05:48:47;;;;;;;33.63;13.67;;;;;6.60;97112.00;;;;8367700;28;20221;-72
2022/03/16 05:52:50;;;;;;;30.77;13.57;;;;;6.60;97118.00;;;;8371523;28;20226;-74
2022/03/16 05:56:54;;;;;;;27.50;13.00;;;;;6.70;97126.00;;;;8369521;28;20242;-73
2022/03/16 06:00:57;;;;;;;30.90;13.23;;;;;6.70;97123.00;;;;8369677;28;20224;-73
2022/03/16 06:05:00;;;;;;;34.40;15.90;;;;;6.70;97128.00;;;;8363018;28;20315;-73
2022/03/16 06:09:03;;;;;;;34.63;14.27;;;;;6.80;97129.00;;;;8377396;28;20687;-73
2022/03/16 06:13:08;;;;;;;30.50;13.33;;;;;6.80;97131.00;;;;8372916;28;20303;-73
2022/03/16 06:17:11;;;;;;;33.57;14.23;;;;;6.90;97141.00;;;;8376238;28;20329;-74
2022/03/16 06:21:14;;;;;;;28.60;14.20;;;;;7.00;97135.00;;;;8368049;28;20277;-73
2022/03/16 06:25:17;;;;;;;24.87;13.07;;;;;7.00;97133.00;;;;8380303;28;20231;-75
2022/03/16 06:29:21;;;;;;;25.30;13.70;;;;;7.00;97132.00;;;;8367422;28;20232;-74
2022/03/16 06:33:24;;;;;;;25.80;13.67;;;;;7.00;97123.00;;;;8368590;28;20230;-74
2022/03/16 06:37:27;;;;;;;28.70;13.47;;;;;7.10;97144.00;;;;8369936;28;20239;-74
2022/03/16 06:41:30;;;;;;;31.00;14.20;;;;;7.10;97147.00;;;;8368724;28;20646;-74
2022/03/16 06:45:35;;;;;;;32.60;14.80;;;;;7.20;97150.00;;;;8370995;28;20230;-74
2022/03/16 06:49:38;;;;;;;30.23;14.17;;;;;7.30;97146.00;;;;8365226;28;20234;-74
2022/03/16 06:53:41;;;;;;;28.27;14.70;;;;;7.40;97150.00;;;;8378364;28;20234;-75
2022/03/16 06:57:44;;;;;;;30.63;14.43;;;;;7.50;97154.00;;;;8381073;28;20231;-74
2022/03/16 07:01:48;;;;;;;26.60;14.27;;;;;7.60;97155.00;;;;8377394;28;20681;-76
2022/03/16 07:05:52;;;;;;;30.10;15.37;;;;;7.70;97150.00;;;;8378791;28;20232;-77
2022/03/16 07:09:55;;;;;;;23.97;13.57;;;;;7.70;97150.00;;;;8368880;28;20748;-76
2022/03/16 07:18:21;;;;;;;32.10;15.07;;;;;7.80;97156.00;;;;8372490;28;20370;-77
2022/03/16 07:22:24;;;;;;;28.73;14.90;;;;;7.80;97159.00;;;;8372257;28;20677;-75
2022/03/16 07:26:47;;;;;;;28.97;15.10;;;;;7.90;97164.00;;;;8360609;28;20232;-78
2022/03/16 07:30:50;;;;;;;26.03;14.33;;;;;8.10;97168.00;;;;8365425;28;20310;-77
2022/03/16 07:34:54;;;;;;;24.23;13.90;;;;;8.30;97158.00;;;;8366406;28;20803;-79
2022/03/16 07:38:57;;;;;;;29.90;15.40;;;;;8.30;97144.00;;;;8371189;28;20817;-78
2022/03/16 07:43:01;;;;;;;24.97;14.07;;;;;8.20;97153.00;;;;8366200;28;20215;-80
2022/03/16 07:47:05;;;;;;;31.20;15.30;;;;;8.30;97151.00;;;;8368001;28;20227;-75
2022/03/16 07:51:09;;;;;;;29.47;14.97;;;;;8.40;97158.00;;;;8364834;28;20712;-75
2022/03/16 07:55:13;;;;;;;24.13;13.83;;;;;8.50;97155.00;;;;8359100;28;20721;-77
2022/03/16 07:59:16;;;;;;;24.50;13.23;;;;;8.60;97165.00;;;;8383172;28;20705;-75
2022/03/16 08:03:19;;;;;;;27.03;15.30;;;;;8.60;97167.00;;;;8365684;28;20636;-76
2022/03/16 08:07:24;;;;;;;27.63;13.83;;;;;8.60;97169.00;;;;8369506;28;20220;-75
2022/03/16 08:11:27;;;;;;;24.97;13.70;;;;;8.80;97181.00;;;;8367999;28;20293;-77
2022/03/16 08:15:31;;;;;;;21.93;13.73;;;;;8.90;97176.00;;;;8372061;28;20231;-74
2022/03/16 08:19:34;;;;;;;30.83;14.87;;;;;9.10;97173.00;;;;8370798;28;20305;-78
2022/03/16 08:23:38;;;;;;;27.57;13.60;;;;;9.10;97177.00;;;;8363080;28;20829;-80
2022/03/16 08:27:45;;;;;;;25.87;14.17;;;;;9.20;97188.00;;;;8377416;28;20846;-76
2022/03/16 08:31:48;;;;;;;26.03;13.47;;;;;9.30;97190.00;;;;8382068;28;20227;-75
2022/03/16 08:35:51;;;;;;;23.93;14.23;;;;;9.60;97204.00;;;;8377579;28;20244;-73
2022/03/16 08:39:55;;;;;;;24.50;14.73;;;;;9.80;97198.00;;;;8386990;28;20289;-77
2022/03/16 08:43:58;;;;;;;27.00;14.23;;;;;10.00;97199.00;;;;8379130;28;20236;-74
2022/03/16 08:48:02;;;;;;;25.50;14.87;;;;;10.10;97206.00;;;;8368989;28;20277;-73
2022/03/16 08:52:06;;;;;;;26.70;15.00;;;;;10.30;97210.00;;;;8375546;28;20224;-77
2022/03/16 08:56:12;;;;;;;26.73;15.30;;;;;10.40;97213.00;;;;8370610;28;20235;-75
2022/03/16 09:00:18;;;;;;;28.10;15.43;;;;;10.50;97199.00;;;;8382072;28;20225;-74
2022/03/16 09:04:21;;;;;;;27.27;15.10;;;;;10.90;97201.00;;;;8387866;28;20262;-76
2022/03/16 09:08:24;;;;;;;24.33;14.90;;;;;11.30;97210.00;;;;8378708;28;20231;-75
2022/03/16 09:12:28;;;;;;;25.17;14.70;;;;;11.40;97212.00;;;;8375747;28;20572;-76
2022/03/16 09:16:31;;;;;;;27.08;15.82;;;;;11.60;97211.00;;;;8376468;28;20232;-76
2022/03/16 09:20:35;;;;;;;28.00;13.27;;;;;12.00;97211.00;;;;8382005;28;20252;-74
2022/03/16 09:24:39;;;;;;;23.63;14.27;;;;;12.50;97217.00;;;;8373945;28;20646;-75
2022/03/16 09:28:44;;;;;;;26.13;15.30;;;;;13.10;97219.00;;;;8368622;28;20227;-75
2022/03/16 09:32:47;;;;;;;25.95;14.82;;;;;13.40;97226.00;;;;8375689;28;20233;-76
2022/03/16 09:36:50;;;;;;;22.20;14.27;;;;;13.50;97225.00;;;;8381133;28;20288;-74
2022/03/16 09:40:56;;;;;;;26.20;14.55;;;;;13.70;97233.00;;;;8373715;28;20273;-76
2022/03/16 09:45:02;;;;;;;25.02;15.77;;;;;13.60;97223.00;;;;8383496;28;20231;-77
2022/03/16 09:49:06;;;;;;;22.42;14.45;;;;;13.50;97226.00;;;;8378771;28;20280;-78
2022/03/16 09:53:12;;;;;;;25.42;15.77;;;;;13.50;97224.00;;;;8379108;28;20233;-73
2022/03/16 09:57:15;;;;;;;25.70;16.52;;;;;14.00;97231.00;;;;8374011;28;20232;-73
2022/03/16 10:01:20;;;;;;;23.45;15.68;;;;;14.50;97228.00;;;;8371037;28;20255;-73
2022/03/16 10:05:27;;;;;;;26.95;15.52;;;;;15.40;97243.00;;;;8370262;28;20234;-77
2022/03/16 10:13:57;;;;;;;24.30;16.10;;;;;16.30;97234.00;;;;8367336;28;20219;-78
2022/03/16 10:18:03;;;;;;;24.25;15.43;;;;;16.70;97237.00;;;;8374857;28;20376;-76
2022/03/16 10:22:07;;;;;;;30.30;15.25;;;;;16.80;97230.00;;;;8376988;28;20647;-78
2022/03/16 10:26:16;;;;;;;20.90;14.23;;;;;16.20;97226.00;;;;8373769;28;20680;-76
2022/03/16 10:30:20;;;;;;;26.08;15.52;;;;;15.70;97236.00;;;;8372335;28;20220;-73
2022/03/16 10:34:25;;;;;;;24.23;15.45;;;;;15.30;97236.00;;;;8374950;28;20240;-73
2022/03/16 10:38:30;;;;;;;23.38;15.35;;;;;15.00;97231.00;;;;8372903;28;20239;-79
2022/03/16 10:46:55;;;;;;;23.85;14.98;;;;;15.60;97238.00;;;;8368597;28;20323;-74
2022/03/16 10:51:02;;;;;;;26.65;16.45;;;;;15.70;97234.00;;;;8367540;28;20237;-75
2022/03/16 10:55:06;;;;;;;23.92;15.10;;;;;16.00;97224.00;;;;8366631;28;20631;-76
2022/03/16 10:59:10;;;;;;;24.65;15.57;;;;;16.60;97239.00;;;;8373526;28;20235;-77
2022/03/16 11:03:15;;;;;;;22.98;15.20;;;;;16.90;97225.00;;;;8366232;28;20350;-76
2022/03/16 11:07:21;;;;;;;26.88;15.82;;;;;17.10;97228.00;;;;8366143;28;20227;-73
2022/03/16 11:15:52;;;;;;;27.42;15.13;;;;;17.50;97214.00;;;;8311938;28;20286;-80
2022/03/16 11:19:56;;;;;;;23.50;14.32;;;;;17.80;97212.00;;;;8374218;28;20321;-77
2022/03/16 11:24:16;;;;;;;26.73;16.70;;;;;18.00;97210.00;;;;8373270;28;20227;-76
2022/03/16 11:28:28;;;;;;;25.10;15.30;;;;;18.00;97214.00;;;;8370769;28;20224;-75
2022/03/16 11:32:35;;;;;;;23.95;15.45;;;;;17.80;97212.00;;;;8376396;28;20223;-75
2022/03/16 11:36:40;;;;;;;24.55;14.95;;;;;17.70;97201.00;;;;8370649;28;20231;-75
2022/03/16 11:40:50;;;;;;;26.25;16.42;;;;;17.10;97208.00;;;;8374196;28;20236;-77
2022/03/16 11:44:53;;;;;;;24.05;15.18;;;;;16.90;97203.00;;;;8359734;28;20235;-76
2022/03/16 11:49:03;;;;;;;26.08;15.48;;;;;16.70;97203.00;;;;8366987;28;20238;-78
2022/03/16 11:53:07;;;;;;;25.98;15.95;;;;;16.70;97182.00;;;;8367464;28;20286;-77
2022/03/16 11:57:12;;;;;;;29.55;17.08;;;;;16.60;97174.00;;;;8363360;28;20239;-77
2022/03/16 12:01:29;;;;;;;24.20;15.25;;;;;16.40;97180.00;;;;8371892;28;20235;-76
2022/03/16 12:05:58;;;;;;;24.75;14.80;;;;;16.10;97167.00;;;;8356887;28;20228;-75
2022/03/16 12:10:08;;;;;;;25.60;15.77;;;;;15.80;97167.00;;;;8364572;28;20228;-76
2022/03/16 12:14:13;;;;;;;28.27;16.15;;;;;15.50;97157.00;;;;8370823;28;20215;-76
2022/03/16 12:18:26;;;;;;;26.50;15.52;;;;;15.30;97137.00;;;;8370218;28;20228;-75
2022/03/16 12:22:30;;;;;;;25.38;15.82;;;;;15.40;97148.00;;;;8374035;28;20216;-76
2022/03/16 12:28:55;;;;;;;25.83;14.57;;;;;15.50;97145.00;;;;8365688;28;20631;-79
2022/03/16 12:31:01;;;;;;;23.63;14.60;;;;;16.00;97157.00;;;;8372238;28;20297;-75
2022/03/16 12:35:05;;;;;;;26.20;14.88;;;;;16.60;97152.00;;;;8362835;28;20910;-76
2022/03/16 12:39:12;;;;;;;23.35;14.73;;;;;16.90;97144.00;;;;8369434;28;20228;-75
2022/03/16 12:43:22;;;;;;;24.55;14.35;;;;;17.10;97136.00;;;;8369536;28;20216;-76
2022/03/16 12:47:34;;;;;;;23.65;14.55;;;;;17.20;97138.00;;;;8365646;28;20286;-76
2022/03/16 12:51:38;;;;;;;26.10;15.55;;;;;17.30;97133.00;;;;8355325;28;20317;-77
2022/03/16 12:55:55;;;;;;;22.30;14.57;;;;;17.20;97127.00;;;;8368776;28;20277;-76
2022/03/16 12:59:59;;;;;;;25.08;15.40;;;;;17.40;97130.00;;;;8363775;28;20543;-76
2022/03/16 13:04:08;;;;;;;22.80;14.70;;;;;17.50;97129.00;;;;8372036;28;20636;-77
2022/03/16 13:08:11;;;;;;;23.48;15.13;;;;;17.50;97125.00;;;;8366888;28;20231;-77
2022/03/16 13:12:16;;;;;;;27.80;15.38;;;;;17.30;97129.00;;;;8377327;28;20744;-76
2022/03/16 13:16:38;;;;;;;24.45;15.48;;;;;17.20;97129.00;;;;8375275;28;20262;-76
2022/03/16 13:20:43;;;;;;;25.85;15.15;;;;;17.30;97120.00;;;;8380657;28;20310;-75
2022/03/16 13:24:49;;;;;;;28.27;16.40;;;;;17.30;97121.00;;;;8375942;28;20582;-76
2022/03/16 13:28:54;;;;;;;22.27;14.77;;;;;17.40;97125.00;;;;8377018;28;20240;-79
2022/03/16 13:32:58;;;;;;;25.58;15.13;;;;;17.20;97130.00;;;;8370770;28;20223;-75
2022/03/16 13:37:03;;;;;;;24.77;15.88;;;;;17.10;97126.00;;;;8379228;28;20220;-74
2022/03/16 13:41:13;;;;;;;26.15;16.08;;;;;17.10;97133.00;;;;8380081;28;20236;-75
2022/03/16 13:45:20;;;;;;;27.10;16.17;;;;;17.20;97134.00;;;;8378978;28;20676;-74
2022/03/16 13:49:34;;;;;;;25.67;16.00;;;;;17.10;97129.00;;;;8380434;28;20255;-74
2022/03/16 13:53:43;;;;;;;25.70;16.38;;;;;17.20;97112.00;;;;8386103;28;20238;-74
2022/03/16 13:57:47;;;;;;;26.75;17.05;;;;;17.10;97111.00;;;;8385550;28;20315;-74
2022/03/16 14:01:50;;;;;;;26.45;15.38;;;;;17.10;97112.00;;;;8372723;28;20286;-73
2022/03/16 14:05:58;;;;;;;25.67;16.00;;;;;17.10;97113.00;;;;8379998;28;20735;-73
2022/03/16 14:10:03;;;;;;;25.30;15.90;;;;;17.10;97113.00;;;;8365610;28;20914;-73
2022/03/16 14:14:11;;;;;;;27.75;16.73;;;;;17.00;97110.00;;;;8385415;28;20627;-80
2022/03/16 14:18:15;;;;;;;29.02;16.52;;;;;17.10;97108.00;;;;8375973;28;20277;-81
2022/03/16 14:22:18;;;;;;;27.33;15.52;;;;;17.10;97112.00;;;;8375233;28;20254;-79
2022/03/16 14:26:23;;;;;;;27.05;15.45;;;;;16.80;97117.00;;;;8379678;28;21324;-78
2022/03/16 14:30:28;;;;;;;25.73;15.80;;;;;16.50;97116.00;;;;8382956;28;20273;-74
2022/03/16 14:34:31;;;;;;;34.25;17.63;;;;;16.20;97123.00;;;;8377652;28;20235;-73
2022/03/16 14:38:34;;;;;;;26.50;16.80;;;;;16.00;97109.00;;;;8380525;28;20282;-75
2022/03/16 14:42:39;;;;;;;29.05;17.13;;;;;15.70;97107.00;;;;8377900;28;20320;-73
2022/03/16 14:46:42;;;;;;;27.17;17.33;;;;;15.70;97108.00;;;;8370456;28;20236;-75
2022/03/16 14:50:45;;;;;;;25.63;17.23;;;;;16.00;97106.00;;;;8365887;28;20232;-73
2022/03/16 14:54:48;;;;;;;28.92;18.10;;;;;16.10;97107.00;;;;8365820;28;20231;-73
2022/03/16 14:58:52;;;;;;;30.83;16.58;;;;;16.20;97107.00;;;;8362142;28;20276;-74
2022/03/16 15:02:56;;;;;;;25.10;15.38;;;;;16.20;97089.00;;;;8377537;28;20857;-72
2022/03/16 15:06:59;;;;;;;31.15;18.05;;;;;16.10;97085.00;;;;8363321;28;20261;-74
2022/03/16 15:11:02;;;;;;;27.58;15.93;;;;;16.00;97094.00;;;;8370094;28;20224;-75
2022/03/16 15:15:08;;;;;;;32.38;19.23;;;;;16.10;97086.00;;;;8377782;28;20223;-74
2022/03/16 15:19:11;;;;;;;27.85;17.55;;;;;16.20;97097.00;;;;8369956;28;20224;-74
2022/03/16 15:23:14;;;;;;;29.30;17.48;;;;;16.30;97092.00;;;;8354545;28;20277;-75
2022/03/16 15:27:17;;;;;;;26.67;16.27;;;;;16.40;97082.00;;;;8364835;28;20274;-74
2022/03/16 15:31:23;;;;;;;31.67;17.90;;;;;16.20;97079.00;;;;8368088;28;20992;-75
2022/03/16 15:35:27;;;;;;;24.42;15.68;;;;;15.90;97065.00;;;;8377043;28;20228;-73
2022/03/16 15:39:30;;;;;;;29.67;17.05;;;;;15.50;97051.00;;;;8359944;28;20703;-76
2022/03/16 15:43:33;;;;;;;30.83;17.10;;;;;15.20;97045.00;;;;8361263;28;20216;-73
2022/03/16 15:47:51;;;;;;;31.83;18.08;;;;;14.90;97036.00;;;;8365244;28;20290;-71
2022/03/16 15:52:03;;;;;;;28.45;17.05;;;;;14.50;97048.00;;;;8363825;28;20231;-73
2022/03/16 15:56:06;;;;;;;28.20;16.67;;;;;14.20;97042.00;;;;8363232;28;20276;-75
2022/03/16 16:00:11;;;;;;;28.35;17.48;;;;;13.90;97047.00;;;;8366235;28;20228;-72
2022/03/16 16:04:16;;;;;;;32.03;17.75;;;;;13.70;97048.00;;;;8365479;28;20299;-74
2022/03/16 16:08:19;;;;;;;30.17;17.20;;;;;13.60;97063.00;;;;8369731;28;20247;-76
2022/03/16 16:12:22;;;;;;;30.40;17.45;;;;;13.50;97075.00;;;;8371108;28;20254;-75
2022/03/16 16:16:25;;;;;;;29.45;17.75;;;;;13.50;97062.00;;;;8363860;28;20285;-74
2022/03/16 16:20:30;;;;;;;32.47;18.25;;;;;13.40;97041.00;;;;8352683;28;20803;-74
2022/03/16 16:24:33;;;;;;;35.08;18.98;;;;;13.30;97056.00;;;;8366125;28;20263;-73
2022/03/16 16:28:36;;;;;;;32.78;18.10;;;;;13.20;97069.00;;;;8365746;28;20285;-74
2022/03/16 16:32:39;;;;;;;32.83;19.58;;;;;13.10;97063.00;;;;8361389;28;20276;-73
2022/03/16 16:36:45;;;;;;;31.00;18.17;;;;;13.00;97074.00;;;;8357484;28;20285;-74
2022/03/16 16:40:48;;;;;;;37.15;18.50;;;;;12.90;97079.00;;;;8369985;28;20227;-75
2022/03/16 16:44:51;;;;;;;30.15;18.23;;;;;12.80;97085.00;;;;8365049;28;20268;-72
2022/03/16 16:48:54;;;;;;;33.78;19.13;;;;;12.70;97077.00;;;;8362781;28;20229;-73
2022/03/16 16:53:02;;;;;;;48.28;25.35;;;;;12.60;97087.00;;;;8376588;28;20225;-73
2022/03/16 16:57:10;;;;;;;49.15;31.48;;;;;12.50;97094.00;;;;8370377;28;20230;-74
2022/03/16 17:01:16;;;;;;;61.72;36.30;;;;;12.40;97089.00;;;;8365934;28;20300;-73
2022/03/16 17:05:27;;;;;;;36.95;21.02;;;;;12.20;97082.00;;;;8372962;28;20254;-73
2022/03/16 17:09:32;;;;;;;50.53;36.92;;;;;12.10;97083.00;;;;8370538;28;20243;-73
2022/03/16 17:13:35;;;;;;;45.40;24.40;;;;;11.90;97069.00;;;;8379037;28;20228;-73
2022/03/16 17:17:41;;;;;;;39.85;21.88;;;;;11.70;97064.00;;;;8371867;28;20223;-73
2022/03/16 17:21:45;;;;;;;39.47;20.60;;;;;11.60;97063.00;;;;8373486;28;20271;-73
2022/03/16 17:25:49;;;;;;;38.35;21.25;;;;;11.50;97057.00;;;;8379260;28;20246;-73
2022/03/16 17:29:52;;;;;;;40.83;21.15;;;;;11.40;97049.00;;;;8381564;28;20236;-73
2022/03/16 17:33:55;;;;;;;39.45;21.50;;;;;11.30;97035.00;;;;8380752;28;20694;-73
2022/03/16 17:37:59;;;;;;;40.75;21.55;;;;;11.20;97036.00;;;;8372942;28;20306;-74
2022/03/16 17:46:42;;;;;;;42.50;22.50;;;;;10.90;97058.00;;;;8244483;28;20413;-75
2022/03/16 17:50:49;;;;;;;40.25;21.77;;;;;10.80;97063.00;;;;8312472;28;20281;-73
2022/03/16 17:54:55;;;;;;;71.75;39.60;;;;;10.70;97072.00;;;;8366151;28;20231;-73
2022/03/16 17:58:59;;;;;;;43.50;23.67;;;;;10.60;97081.00;;;;8361284;28;20228;-74
2022/03/16 18:03:02;;;;;;;43.35;23.45;;;;;10.50;97087.00;;;;8378111;28;20309;-74
2022/03/16 18:07:05;;;;;;;45.33;23.80;;;;;10.30;97089.00;;;;8376517;28;20224;-73
2022/03/16 18:15:39;;;;;;;45.47;24.80;;;;;9.90;97088.00;;;;8326288;28;20225;-72
2022/03/16 18:19:42;;;;;;;52.63;28.23;;;;;9.90;97090.00;;;;8377295;28;20240;-74
2022/03/16 18:23:47;;;;;;;47.20;24.65;;;;;9.90;97090.00;;;;8374171;28;20255;-74
2022/03/16 18:27:51;;;;;;;50.47;25.70;;;;;9.80;97086.00;;;;8378055;28;20312;-72
2022/03/16 18:31:56;;;;;;;46.40;24.13;;;;;9.80;97077.00;;;;8374217;28;20227;-73
2022/03/16 18:35:59;;;;;;;42.73;23.37;;;;;9.80;97067.00;;;;8372428;28;20615;-73
2022/03/16 18:40:03;;;;;;;46.83;25.13;;;;;9.70;97071.00;;;;8378159;28;20226;-74
2022/03/16 18:44:06;;;;;;;55.10;28.20;;;;;9.60;97086.00;;;;8378225;28;20389;-75
2022/03/16 18:48:10;;;;;;;53.73;27.10;;;;;9.40;97087.00;;;;8374561;28;20263;-74
2022/03/16 18:52:16;;;;;;;56.10;27.23;;;;;9.30;97083.00;;;;8373535;28;20289;-72
2022/03/16 18:56:23;;;;;;;66.17;29.90;;;;;9.20;97091.00;;;;8378229;28;20226;-72
2022/03/16 19:00:27;;;;;;;68.33;30.20;;;;;9.10;97097.00;;;;8365007;28;20228;-72
2022/03/16 19:04:32;;;;;;;63.90;30.53;;;;;9.00;97107.00;;;;8377968;28;20239;-75
2022/03/16 19:08:35;;;;;;;62.17;30.63;;;;;8.90;97102.00;;;;8374548;28;22231;-74
2022/03/16 19:16:59;;;;;;;57.23;27.80;;;;;8.80;97116.00;;;;8373731;28;20220;-72
2022/03/16 19:21:04;;;;;;;58.90;28.10;;;;;8.60;97117.00;;;;8377751;28;20231;-73
2022/03/16 19:25:10;;;;;;;56.60;28.87;;;;;8.60;97128.00;;;;8374945;28;20224;-73
2022/03/16 19:29:14;;;;;;;56.17;29.03;;;;;8.60;97121.00;;;;8377631;28;20239;-73
2022/03/16 19:33:18;;;;;;;60.07;28.77;;;;;8.50;97115.00;;;;8377467;28;20227;-74
2022/03/16 19:37:24;;;;;;;64.97;30.13;;;;;8.50;97115.00;;;;8375833;28;20227;-73
2022/03/16 19:41:27;;;;;;;59.27;28.27;;;;;8.50;97112.00;;;;8377086;28;20238;-74
2022/03/16 19:45:30;;;;;;;65.27;31.63;;;;;8.50;97108.00;;;;8376677;28;20227;-75
2022/03/16 19:49:34;;;;;;;72.50;32.53;;;;;8.40;97095.00;;;;8376497;28;20255;-74
2022/03/16 19:53:40;;;;;;;71.53;32.10;;;;;8.40;97095.00;;;;8376061;28;20919;-73
2022/03/16 19:57:43;;;;;;;68.97;32.50;;;;;8.40;97099.00;;;;8373879;28;20224;-74
2022/03/16 20:01:46;;;;;;;65.53;30.57;;;;;8.30;97105.00;;;;8369364;28;20278;-73
2022/03/16 20:05:50;;;;;;;63.47;30.83;;;;;8.30;97093.00;;;;8373988;28;20623;-73
2022/03/16 20:09:56;;;;;;;58.77;28.23;;;;;8.20;97099.00;;;;8368440;28;20297;-74
2022/03/16 20:14:01;;;;;;;54.60;26.23;;;;;8.10;97110.00;;;;8372648;28;20219;-73
2022/03/16 20:18:04;;;;;;;55.07;27.93;;;;;8.10;97111.00;;;;8372066;28;20224;-73
2022/03/16 20:22:08;;;;;;;56.30;28.13;;;;;8.10;97123.00;;;;8369743;28;20219;-73
2022/03/16 20:26:12;;;;;;;56.80;28.43;;;;;8.10;97115.00;;;;8385376;28;20219;-73
2022/03/16 20:30:15;;;;;;;51.37;26.83;;;;;8.10;97108.00;;;;8384283;28;20235;-73
2022/03/16 20:34:21;;;;;;;55.67;26.87;;;;;8.10;97114.00;;;;8386067;28;20622;-73